<?xml version="1.0" encoding="UTF-8"?><gpx creator="Wikiloc - http://www.wikiloc.com" version="1.1" xmlns="http://www.topografix.com/GPX/1/1" xmlns:xsi="http://www.w3.org/2001/XMLSchema-instance" xsi:schemaLocation="http://www.topografix.com/GPX/1/1 http://www.topografix.com/GPX/1/1/gpx.xsd"><wpt lat="38.641030" lon="-5.788840"><ele>405.1</ele><time>2011-01-03T13:44:21Z</time><name>ERMITA ALTAGRACIA</name><cmt></cmt><desc></desc></wpt><wpt lat="38.627570" lon="-5.799940"><ele>399.0</ele><time>2011-01-03T13:44:21Z</time><name>MOLINO ANIMAS</name><cmt></cmt><desc></desc></wpt><wpt lat="38.646790" lon="-5.799100"><ele>385.0</ele><time>2010-03-01T13:28:38Z</time><name>MOLINO ALAMOS</name><cmt></cmt><desc></desc></wpt><trk><name>PR-BA 176 'Senda de la Ermita de la Altagracia' (Higuera de ...</name><cmt></cmt><desc></desc><trkseg><trkpt lat="38.645710" lon="-5.745490"><ele>482.2</ele><time>2010-03-01T11:29:02Z</time></trkpt><trkpt lat="38.645710" lon="-5.745490"><ele>482.2</ele><time>2010-03-01T11:29:03Z</time></trkpt><trkpt lat="38.645740" lon="-5.745510"><ele>481.8</ele><time>2010-03-01T11:29:07Z</time></trkpt><trkpt lat="38.645800" lon="-5.745760"><ele>480.3</ele><time>2010-03-01T11:29:33Z</time></trkpt><trkpt lat="38.645780" lon="-5.746100"><ele>479.4</ele><time>2010-03-01T11:30:17Z</time></trkpt><trkpt lat="38.645770" lon="-5.746280"><ele>478.9</ele><time>2010-03-01T11:30:27Z</time></trkpt><trkpt lat="38.645720" lon="-5.746670"><ele>477.9</ele><time>2010-03-01T11:30:48Z</time></trkpt><trkpt lat="38.645700" lon="-5.747380"><ele>476.5</ele><time>2010-03-01T11:31:26Z</time></trkpt><trkpt lat="38.645700" lon="-5.747810"><ele>475.0</ele><time>2010-03-01T11:31:58Z</time></trkpt><trkpt lat="38.645720" lon="-5.748170"><ele>473.1</ele><time>2010-03-01T11:32:20Z</time></trkpt><trkpt lat="38.645690" lon="-5.748270"><ele>473.6</ele><time>2010-03-01T11:32:51Z</time></trkpt><trkpt lat="38.645690" lon="-5.748310"><ele>473.1</ele><time>2010-03-01T11:33:11Z</time></trkpt><trkpt lat="38.645710" lon="-5.748520"><ele>472.1</ele><time>2010-03-01T11:33:29Z</time></trkpt><trkpt lat="38.645720" lon="-5.748570"><ele>472.1</ele><time>2010-03-01T11:33:33Z</time></trkpt><trkpt lat="38.645740" lon="-5.748640"><ele>472.6</ele><time>2010-03-01T11:33:38Z</time></trkpt><trkpt lat="38.645760" lon="-5.748690"><ele>472.1</ele><time>2010-03-01T11:33:49Z</time></trkpt><trkpt lat="38.645820" lon="-5.748820"><ele>473.1</ele><time>2010-03-01T11:34:13Z</time></trkpt><trkpt lat="38.645940" lon="-5.749200"><ele>471.7</ele><time>2010-03-01T11:34:46Z</time></trkpt><trkpt lat="38.645980" lon="-5.749520"><ele>469.7</ele><time>2010-03-01T11:35:13Z</time></trkpt><trkpt lat="38.645970" lon="-5.749480"><ele>472.1</ele><time>2010-03-01T11:38:12Z</time></trkpt><trkpt lat="38.645980" lon="-5.749560"><ele>472.1</ele><time>2010-03-01T11:38:42Z</time></trkpt><trkpt lat="38.646030" lon="-5.749760"><ele>472.1</ele><time>2010-03-01T11:39:09Z</time></trkpt><trkpt lat="38.646050" lon="-5.749840"><ele>472.1</ele><time>2010-03-01T11:39:31Z</time></trkpt><trkpt lat="38.646080" lon="-5.749880"><ele>471.2</ele><time>2010-03-01T11:39:41Z</time></trkpt><trkpt lat="38.646080" lon="-5.749880"><ele>470.7</ele><time>2010-03-01T11:40:34Z</time></trkpt><trkpt lat="38.646060" lon="-5.750030"><ele>470.7</ele><time>2010-03-01T11:40:44Z</time></trkpt><trkpt lat="38.646080" lon="-5.750550"><ele>469.7</ele><time>2010-03-01T11:41:15Z</time></trkpt><trkpt lat="38.646110" lon="-5.750840"><ele>469.7</ele><time>2010-03-01T11:41:33Z</time></trkpt><trkpt lat="38.646100" lon="-5.751020"><ele>470.2</ele><time>2010-03-01T11:41:43Z</time></trkpt><trkpt lat="38.646090" lon="-5.751440"><ele>468.8</ele><time>2010-03-01T11:42:06Z</time></trkpt><trkpt lat="38.646060" lon="-5.751990"><ele>467.3</ele><time>2010-03-01T11:42:36Z</time></trkpt><trkpt lat="38.646130" lon="-5.752670"><ele>466.4</ele><time>2010-03-01T11:43:12Z</time></trkpt><trkpt lat="38.646200" lon="-5.753250"><ele>466.9</ele><time>2010-03-01T11:43:44Z</time></trkpt><trkpt lat="38.646190" lon="-5.753630"><ele>467.8</ele><time>2010-03-01T11:44:13Z</time></trkpt><trkpt lat="38.646190" lon="-5.753750"><ele>465.9</ele><time>2010-03-01T11:45:18Z</time></trkpt><trkpt lat="38.646250" lon="-5.753770"><ele>465.9</ele><time>2010-03-01T11:45:22Z</time></trkpt><trkpt lat="38.646280" lon="-5.753870"><ele>466.4</ele><time>2010-03-01T11:45:27Z</time></trkpt><trkpt lat="38.646240" lon="-5.754160"><ele>468.3</ele><time>2010-03-01T11:47:58Z</time></trkpt><trkpt lat="38.646250" lon="-5.754370"><ele>467.8</ele><time>2010-03-01T11:48:27Z</time></trkpt><trkpt lat="38.646290" lon="-5.754580"><ele>466.9</ele><time>2010-03-01T11:48:44Z</time></trkpt><trkpt lat="38.646340" lon="-5.755140"><ele>464.9</ele><time>2010-03-01T11:49:17Z</time></trkpt><trkpt lat="38.646360" lon="-5.755640"><ele>462.5</ele><time>2010-03-01T11:49:44Z</time></trkpt><trkpt lat="38.646520" lon="-5.756230"><ele>460.1</ele><time>2010-03-01T11:50:16Z</time></trkpt><trkpt lat="38.646590" lon="-5.756810"><ele>458.7</ele><time>2010-03-01T11:50:47Z</time></trkpt><trkpt lat="38.646660" lon="-5.757200"><ele>459.2</ele><time>2010-03-01T11:51:10Z</time></trkpt><trkpt lat="38.646700" lon="-5.757440"><ele>459.6</ele><time>2010-03-01T11:51:26Z</time></trkpt><trkpt lat="38.646680" lon="-5.757510"><ele>459.2</ele><time>2010-03-01T11:51:45Z</time></trkpt><trkpt lat="38.646730" lon="-5.757750"><ele>459.2</ele><time>2010-03-01T11:52:20Z</time></trkpt><trkpt lat="38.646760" lon="-5.758130"><ele>458.7</ele><time>2010-03-01T11:52:47Z</time></trkpt><trkpt lat="38.646770" lon="-5.758780"><ele>458.2</ele><time>2010-03-01T11:53:22Z</time></trkpt><trkpt lat="38.646640" lon="-5.759390"><ele>457.7</ele><time>2010-03-01T11:53:57Z</time></trkpt><trkpt lat="38.646610" lon="-5.759920"><ele>458.7</ele><time>2010-03-01T11:54:27Z</time></trkpt><trkpt lat="38.646750" lon="-5.760640"><ele>459.6</ele><time>2010-03-01T11:55:06Z</time></trkpt><trkpt lat="38.646790" lon="-5.760900"><ele>460.1</ele><time>2010-03-01T11:55:21Z</time></trkpt><trkpt lat="38.646870" lon="-5.761390"><ele>458.7</ele><time>2010-03-01T11:55:48Z</time></trkpt><trkpt lat="38.646890" lon="-5.761570"><ele>460.1</ele><time>2010-03-01T11:55:57Z</time></trkpt><trkpt lat="38.646930" lon="-5.762040"><ele>459.2</ele><time>2010-03-01T11:56:23Z</time></trkpt><trkpt lat="38.647040" lon="-5.762690"><ele>458.2</ele><time>2010-03-01T11:56:58Z</time></trkpt><trkpt lat="38.647180" lon="-5.763250"><ele>456.8</ele><time>2010-03-01T11:57:29Z</time></trkpt><trkpt lat="38.647260" lon="-5.763710"><ele>454.9</ele><time>2010-03-01T11:57:55Z</time></trkpt><trkpt lat="38.647300" lon="-5.763910"><ele>452.4</ele><time>2010-03-01T11:58:06Z</time></trkpt><trkpt lat="38.647530" lon="-5.764490"><ele>452.4</ele><time>2010-03-01T11:58:42Z</time></trkpt><trkpt lat="38.647770" lon="-5.765020"><ele>452.4</ele><time>2010-03-01T11:59:16Z</time></trkpt><trkpt lat="38.647740" lon="-5.765300"><ele>452.0</ele><time>2010-03-01T11:59:40Z</time></trkpt><trkpt lat="38.647750" lon="-5.765580"><ele>452.4</ele><time>2010-03-01T12:00:05Z</time></trkpt><trkpt lat="38.647770" lon="-5.765570"><ele>452.0</ele><time>2010-03-01T12:00:26Z</time></trkpt><trkpt lat="38.647810" lon="-5.765830"><ele>452.4</ele><time>2010-03-01T12:00:49Z</time></trkpt><trkpt lat="38.647870" lon="-5.766060"><ele>452.0</ele><time>2010-03-01T12:01:11Z</time></trkpt><trkpt lat="38.647930" lon="-5.766380"><ele>452.0</ele><time>2010-03-01T12:01:31Z</time></trkpt><trkpt lat="38.647890" lon="-5.766740"><ele>451.5</ele><time>2010-03-01T12:01:55Z</time></trkpt><trkpt lat="38.647850" lon="-5.766840"><ele>452.0</ele><time>2010-03-01T12:02:22Z</time></trkpt><trkpt lat="38.647810" lon="-5.767000"><ele>452.9</ele><time>2010-03-01T12:02:40Z</time></trkpt><trkpt lat="38.647680" lon="-5.767310"><ele>452.9</ele><time>2010-03-01T12:03:04Z</time></trkpt><trkpt lat="38.647670" lon="-5.767350"><ele>452.0</ele><time>2010-03-01T12:03:05Z</time></trkpt><trkpt lat="38.647520" lon="-5.767770"><ele>450.5</ele><time>2010-03-01T12:03:31Z</time></trkpt><trkpt lat="38.647370" lon="-5.768080"><ele>451.0</ele><time>2010-03-01T12:03:54Z</time></trkpt><trkpt lat="38.647340" lon="-5.768140"><ele>451.5</ele><time>2010-03-01T12:03:59Z</time></trkpt><trkpt lat="38.647180" lon="-5.768560"><ele>450.5</ele><time>2010-03-01T12:04:25Z</time></trkpt><trkpt lat="38.647080" lon="-5.768820"><ele>449.1</ele><time>2010-03-01T12:04:44Z</time></trkpt><trkpt lat="38.647060" lon="-5.768860"><ele>450.5</ele><time>2010-03-01T12:04:47Z</time></trkpt><trkpt lat="38.647030" lon="-5.768930"><ele>449.5</ele><time>2010-03-01T12:04:52Z</time></trkpt><trkpt lat="38.646900" lon="-5.769260"><ele>450.0</ele><time>2010-03-01T12:05:15Z</time></trkpt><trkpt lat="38.646910" lon="-5.769210"><ele>449.5</ele><time>2010-03-01T12:05:31Z</time></trkpt><trkpt lat="38.646850" lon="-5.769400"><ele>450.5</ele><time>2010-03-01T12:05:58Z</time></trkpt><trkpt lat="38.646820" lon="-5.769460"><ele>450.5</ele><time>2010-03-01T12:06:13Z</time></trkpt><trkpt lat="38.646860" lon="-5.769500"><ele>450.5</ele><time>2010-03-01T12:09:02Z</time></trkpt><trkpt lat="38.646810" lon="-5.769650"><ele>449.1</ele><time>2010-03-01T12:09:25Z</time></trkpt><trkpt lat="38.646770" lon="-5.769730"><ele>449.1</ele><time>2010-03-01T12:09:45Z</time></trkpt><trkpt lat="38.646780" lon="-5.769750"><ele>450.0</ele><time>2010-03-01T12:10:20Z</time></trkpt><trkpt lat="38.646740" lon="-5.769940"><ele>448.1</ele><time>2010-03-01T12:10:35Z</time></trkpt><trkpt lat="38.646740" lon="-5.770060"><ele>448.6</ele><time>2010-03-01T12:11:05Z</time></trkpt><trkpt lat="38.646710" lon="-5.770430"><ele>447.1</ele><time>2010-03-01T12:11:29Z</time></trkpt><trkpt lat="38.646740" lon="-5.770910"><ele>446.2</ele><time>2010-03-01T12:12:00Z</time></trkpt><trkpt lat="38.646780" lon="-5.771600"><ele>443.8</ele><time>2010-03-01T12:12:35Z</time></trkpt><trkpt lat="38.646840" lon="-5.772150"><ele>442.4</ele><time>2010-03-01T12:13:09Z</time></trkpt><trkpt lat="38.646840" lon="-5.772190"><ele>441.9</ele><time>2010-03-01T12:13:12Z</time></trkpt><trkpt lat="38.646880" lon="-5.772570"><ele>440.9</ele><time>2010-03-01T12:18:15Z</time></trkpt><trkpt lat="38.646960" lon="-5.772940"><ele>440.9</ele><time>2010-03-01T12:18:41Z</time></trkpt><trkpt lat="38.647050" lon="-5.773550"><ele>439.5</ele><time>2010-03-01T12:19:16Z</time></trkpt><trkpt lat="38.646890" lon="-5.774200"><ele>438.0</ele><time>2010-03-01T12:19:53Z</time></trkpt><trkpt lat="38.646830" lon="-5.774320"><ele>438.0</ele><time>2010-03-01T12:20:18Z</time></trkpt><trkpt lat="38.646670" lon="-5.774590"><ele>438.0</ele><time>2010-03-01T12:20:56Z</time></trkpt><trkpt lat="38.646420" lon="-5.774910"><ele>441.4</ele><time>2010-03-01T12:21:22Z</time></trkpt><trkpt lat="38.646150" lon="-5.775300"><ele>439.5</ele><time>2010-03-01T12:21:51Z</time></trkpt><trkpt lat="38.645730" lon="-5.775550"><ele>437.5</ele><time>2010-03-01T12:22:25Z</time></trkpt><trkpt lat="38.645300" lon="-5.775830"><ele>438.0</ele><time>2010-03-01T12:22:59Z</time></trkpt><trkpt lat="38.645100" lon="-5.776300"><ele>438.5</ele><time>2010-03-01T12:23:31Z</time></trkpt><trkpt lat="38.645090" lon="-5.776380"><ele>438.0</ele><time>2010-03-01T12:24:04Z</time></trkpt><trkpt lat="38.644990" lon="-5.776730"><ele>435.1</ele><time>2010-03-01T12:24:28Z</time></trkpt><trkpt lat="38.644910" lon="-5.776990"><ele>431.3</ele><time>2010-03-01T12:24:43Z</time></trkpt><trkpt lat="38.644790" lon="-5.777610"><ele>429.4</ele><time>2010-03-01T12:25:22Z</time></trkpt><trkpt lat="38.644810" lon="-5.777810"><ele>427.5</ele><time>2010-03-01T12:29:44Z</time></trkpt><trkpt lat="38.644830" lon="-5.778310"><ele>425.0</ele><time>2010-03-01T12:30:12Z</time></trkpt><trkpt lat="38.644870" lon="-5.778960"><ele>422.1</ele><time>2010-03-01T12:30:47Z</time></trkpt><trkpt lat="38.644850" lon="-5.779300"><ele>418.8</ele><time>2010-03-01T12:31:08Z</time></trkpt><trkpt lat="38.644840" lon="-5.779720"><ele>415.9</ele><time>2010-03-01T12:31:30Z</time></trkpt><trkpt lat="38.644730" lon="-5.780150"><ele>414.0</ele><time>2010-03-01T12:31:56Z</time></trkpt><trkpt lat="38.644720" lon="-5.780160"><ele>413.5</ele><time>2010-03-01T12:32:27Z</time></trkpt><trkpt lat="38.644750" lon="-5.780210"><ele>413.5</ele><time>2010-03-01T12:32:54Z</time></trkpt><trkpt lat="38.644670" lon="-5.780600"><ele>413.0</ele><time>2010-03-01T12:33:25Z</time></trkpt><trkpt lat="38.644560" lon="-5.781230"><ele>411.6</ele><time>2010-03-01T12:34:03Z</time></trkpt><trkpt lat="38.644460" lon="-5.781670"><ele>412.1</ele><time>2010-03-01T12:34:27Z</time></trkpt><trkpt lat="38.644390" lon="-5.782080"><ele>409.7</ele><time>2010-03-01T12:34:57Z</time></trkpt><trkpt lat="38.644380" lon="-5.782080"><ele>410.6</ele><time>2010-03-01T12:35:28Z</time></trkpt><trkpt lat="38.644350" lon="-5.782130"><ele>410.1</ele><time>2010-03-01T12:35:33Z</time></trkpt><trkpt lat="38.644220" lon="-5.782650"><ele>409.7</ele><time>2010-03-01T12:36:03Z</time></trkpt><trkpt lat="38.644090" lon="-5.783160"><ele>406.8</ele><time>2010-03-01T12:36:34Z</time></trkpt><trkpt lat="38.644030" lon="-5.783240"><ele>406.3</ele><time>2010-03-01T12:37:00Z</time></trkpt><trkpt lat="38.643800" lon="-5.783680"><ele>405.3</ele><time>2010-03-01T12:37:28Z</time></trkpt><trkpt lat="38.643730" lon="-5.783840"><ele>405.3</ele><time>2010-03-01T12:37:39Z</time></trkpt><trkpt lat="38.643490" lon="-5.784210"><ele>404.4</ele><time>2010-03-01T12:38:06Z</time></trkpt><trkpt lat="38.643240" lon="-5.784810"><ele>402.5</ele><time>2010-03-01T12:38:44Z</time></trkpt><trkpt lat="38.643110" lon="-5.785330"><ele>401.5</ele><time>2010-03-01T12:39:14Z</time></trkpt><trkpt lat="38.643040" lon="-5.785600"><ele>402.0</ele><time>2010-03-01T12:39:35Z</time></trkpt><trkpt lat="38.642950" lon="-5.785880"><ele>401.0</ele><time>2010-03-01T12:39:58Z</time></trkpt><trkpt lat="38.642820" lon="-5.786160"><ele>402.0</ele><time>2010-03-01T12:40:20Z</time></trkpt><trkpt lat="38.642690" lon="-5.786420"><ele>399.1</ele><time>2010-03-01T12:40:37Z</time></trkpt><trkpt lat="38.642410" lon="-5.786880"><ele>400.5</ele><time>2010-03-01T12:41:10Z</time></trkpt><trkpt lat="38.642020" lon="-5.787300"><ele>401.0</ele><time>2010-03-01T12:41:46Z</time></trkpt><trkpt lat="38.641720" lon="-5.787610"><ele>399.6</ele><time>2010-03-01T12:42:20Z</time></trkpt><trkpt lat="38.641490" lon="-5.788020"><ele>396.7</ele><time>2010-03-01T12:49:52Z</time></trkpt><trkpt lat="38.641510" lon="-5.788020"><ele>396.7</ele><time>2010-03-01T12:49:55Z</time></trkpt><trkpt lat="38.641520" lon="-5.788050"><ele>396.2</ele><time>2010-03-01T12:49:57Z</time></trkpt><trkpt lat="38.641510" lon="-5.788170"><ele>395.7</ele><time>2010-03-01T12:50:24Z</time></trkpt><trkpt lat="38.641510" lon="-5.788190"><ele>396.7</ele><time>2010-03-01T12:50:27Z</time></trkpt><trkpt lat="38.641510" lon="-5.788210"><ele>395.7</ele><time>2010-03-01T12:50:29Z</time></trkpt><trkpt lat="38.641510" lon="-5.788340"><ele>395.7</ele><time>2010-03-01T12:50:37Z</time></trkpt><trkpt lat="38.641660" lon="-5.788760"><ele>395.7</ele><time>2010-03-01T12:51:04Z</time></trkpt><trkpt lat="38.641790" lon="-5.789310"><ele>395.2</ele><time>2010-03-01T12:51:37Z</time></trkpt><trkpt lat="38.641790" lon="-5.789480"><ele>394.7</ele><time>2010-03-01T12:51:52Z</time></trkpt><trkpt lat="38.641550" lon="-5.789680"><ele>394.7</ele><time>2010-03-01T12:52:15Z</time></trkpt><trkpt lat="38.641610" lon="-5.789950"><ele>393.3</ele><time>2010-03-01T12:52:30Z</time></trkpt><trkpt lat="38.641650" lon="-5.790000"><ele>392.8</ele><time>2010-03-01T12:52:34Z</time></trkpt><trkpt lat="38.641730" lon="-5.790180"><ele>391.9</ele><time>2010-03-01T12:52:45Z</time></trkpt><trkpt lat="38.641890" lon="-5.790570"><ele>390.4</ele><time>2010-03-01T12:53:08Z</time></trkpt><trkpt lat="38.641860" lon="-5.790790"><ele>390.0</ele><time>2010-03-01T12:53:20Z</time></trkpt><trkpt lat="38.641800" lon="-5.791090"><ele>390.4</ele><time>2010-03-01T12:53:38Z</time></trkpt><trkpt lat="38.641850" lon="-5.791200"><ele>390.4</ele><time>2010-03-01T12:53:44Z</time></trkpt><trkpt lat="38.642050" lon="-5.791490"><ele>390.4</ele><time>2010-03-01T12:54:07Z</time></trkpt><trkpt lat="38.642200" lon="-5.791770"><ele>389.0</ele><time>2010-03-01T12:54:30Z</time></trkpt><trkpt lat="38.642200" lon="-5.791810"><ele>388.5</ele><time>2010-03-01T12:57:14Z</time></trkpt><trkpt lat="38.642050" lon="-5.791990"><ele>389.5</ele><time>2010-03-01T12:57:35Z</time></trkpt><trkpt lat="38.642010" lon="-5.792010"><ele>388.5</ele><time>2010-03-01T12:57:38Z</time></trkpt><trkpt lat="38.642012" lon="-5.792128"><ele>388.0</ele><time>2010-03-01T12:57:39Z</time></trkpt><trkpt lat="38.642045" lon="-5.792267"><ele>388.5</ele><time>2010-03-01T12:57:51Z</time></trkpt><trkpt lat="38.642043" lon="-5.792336"><ele>389.5</ele><time>2010-03-01T12:57:58Z</time></trkpt><trkpt lat="38.642056" lon="-5.792543"><ele>389.0</ele><time>2010-03-01T12:58:22Z</time></trkpt><trkpt lat="38.642108" lon="-5.792614"><ele>388.5</ele><time>2010-03-01T12:58:40Z</time></trkpt><trkpt lat="38.642107" lon="-5.792683"><ele>389.0</ele><time>2010-03-01T12:58:56Z</time></trkpt><trkpt lat="38.642159" lon="-5.792777"><ele>389.0</ele><time>2010-03-01T12:59:08Z</time></trkpt><trkpt lat="38.642119" lon="-5.792936"><ele>388.5</ele><time>2010-03-01T12:59:30Z</time></trkpt><trkpt lat="38.642117" lon="-5.793005"><ele>388.0</ele><time>2010-03-01T12:59:35Z</time></trkpt><trkpt lat="38.642132" lon="-5.793121"><ele>388.0</ele><time>2010-03-01T12:59:57Z</time></trkpt><trkpt lat="38.642183" lon="-5.793260"><ele>388.5</ele><time>2010-03-01T13:00:01Z</time></trkpt><trkpt lat="38.642253" lon="-5.793355"><ele>388.0</ele><time>2010-03-01T13:00:13Z</time></trkpt><trkpt lat="38.642269" lon="-5.793448"><ele>388.0</ele><time>2010-03-01T13:00:29Z</time></trkpt><trkpt lat="38.642304" lon="-5.793495"><ele>387.6</ele><time>2010-03-01T13:00:55Z</time></trkpt><trkpt lat="38.642355" lon="-5.793612"><ele>386.6</ele><time>2010-03-01T13:01:14Z</time></trkpt><trkpt lat="38.642420" lon="-5.793890"><ele>387.1</ele><time>2010-03-01T13:01:17Z</time></trkpt><trkpt lat="38.642491" lon="-5.793962"><ele>387.1</ele><time>2010-03-01T13:01:44Z</time></trkpt><trkpt lat="38.642560" lon="-5.794056"><ele>386.1</ele><time>2010-03-01T13:02:01Z</time></trkpt><trkpt lat="38.642594" lon="-5.794173"><ele>385.1</ele><time>2010-03-01T13:02:09Z</time></trkpt><trkpt lat="38.642610" lon="-5.794265"><ele>385.1</ele><time>2010-03-01T13:02:15Z</time></trkpt><trkpt lat="38.642697" lon="-5.794360"><ele>384.7</ele><time>2010-03-01T13:04:04Z</time></trkpt><trkpt lat="38.642748" lon="-5.794500"><ele>384.7</ele><time>2010-03-01T13:04:07Z</time></trkpt><trkpt lat="38.642763" lon="-5.794616"><ele>384.7</ele><time>2010-03-01T13:04:24Z</time></trkpt><trkpt lat="38.642865" lon="-5.794872"><ele>384.7</ele><time>2010-03-01T13:04:35Z</time></trkpt><trkpt lat="38.642917" lon="-5.794989"><ele>384.7</ele><time>2010-03-01T13:04:39Z</time></trkpt><trkpt lat="38.642966" lon="-5.795198"><ele>384.2</ele><time>2010-03-01T13:05:07Z</time></trkpt><trkpt lat="38.643034" lon="-5.795338"><ele>383.7</ele><time>2010-03-01T13:05:33Z</time></trkpt><trkpt lat="38.643191" lon="-5.795574"><ele>384.2</ele><time>2010-03-01T13:06:00Z</time></trkpt><trkpt lat="38.643366" lon="-5.795788"><ele>384.7</ele><time>2010-03-01T13:06:27Z</time></trkpt><trkpt lat="38.643471" lon="-5.795907"><ele>384.2</ele><time>2010-03-01T13:06:43Z</time></trkpt><trkpt lat="38.643507" lon="-5.795931"><ele>383.7</ele><time>2010-03-01T13:06:53Z</time></trkpt><trkpt lat="38.643555" lon="-5.796163"><ele>383.7</ele><time>2010-03-01T13:07:14Z</time></trkpt><trkpt lat="38.643625" lon="-5.796258"><ele>383.7</ele><time>2010-03-01T13:07:39Z</time></trkpt><trkpt lat="38.643694" lon="-5.796398"><ele>383.7</ele><time>2010-03-01T13:07:44Z</time></trkpt><trkpt lat="38.643729" lon="-5.796445"><ele>382.7</ele><time>2010-03-01T13:08:03Z</time></trkpt><trkpt lat="38.643780" lon="-5.796562"><ele>384.2</ele><time>2010-03-01T13:09:40Z</time></trkpt><trkpt lat="38.643867" lon="-5.796681"><ele>383.7</ele><time>2010-03-01T13:09:59Z</time></trkpt><trkpt lat="38.643974" lon="-5.796731"><ele>383.7</ele><time>2010-03-01T13:10:04Z</time></trkpt><trkpt lat="38.644009" lon="-5.796778"><ele>382.7</ele><time>2010-03-01T13:10:11Z</time></trkpt><trkpt lat="38.644114" lon="-5.796920"><ele>382.7</ele><time>2010-03-01T13:10:19Z</time></trkpt><trkpt lat="38.644183" lon="-5.797037"><ele>383.2</ele><time>2010-03-01T13:10:35Z</time></trkpt><trkpt lat="38.644219" lon="-5.797039"><ele>383.2</ele><time>2010-03-01T13:10:46Z</time></trkpt><trkpt lat="38.644270" lon="-5.797179"><ele>383.7</ele><time>2010-03-01T13:11:05Z</time></trkpt><trkpt lat="38.644321" lon="-5.797296"><ele>383.7</ele><time>2010-03-01T13:11:32Z</time></trkpt><trkpt lat="38.644337" lon="-5.797365"><ele>383.7</ele><time>2010-03-01T13:11:55Z</time></trkpt><trkpt lat="38.644461" lon="-5.797462"><ele>383.2</ele><time>2010-03-01T13:12:02Z</time></trkpt><trkpt lat="38.644531" lon="-5.797579"><ele>384.2</ele><time>2010-03-01T13:14:40Z</time></trkpt><trkpt lat="38.644600" lon="-5.797674"><ele>384.2</ele><time>2010-03-01T13:14:41Z</time></trkpt><trkpt lat="38.644671" lon="-5.797746"><ele>384.2</ele><time>2010-03-01T13:15:08Z</time></trkpt><trkpt lat="38.644884" lon="-5.797869"><ele>384.2</ele><time>2010-03-01T13:15:31Z</time></trkpt><trkpt lat="38.645040" lon="-5.797970"><ele>383.7</ele><time>2010-03-01T13:15:43Z</time></trkpt><trkpt lat="38.645300" lon="-5.798090"><ele>384.7</ele><time>2010-03-01T13:16:02Z</time></trkpt><trkpt lat="38.645340" lon="-5.798110"><ele>385.1</ele><time>2010-03-01T13:16:03Z</time></trkpt><trkpt lat="38.645520" lon="-5.798160"><ele>384.7</ele><time>2010-03-01T13:16:21Z</time></trkpt><trkpt lat="38.645850" lon="-5.798320"><ele>383.7</ele><time>2010-03-01T13:16:48Z</time></trkpt><trkpt lat="38.646280" lon="-5.798540"><ele>385.6</ele><time>2010-03-01T13:17:20Z</time></trkpt><trkpt lat="38.646590" lon="-5.798760"><ele>385.1</ele><time>2010-03-01T13:17:49Z</time></trkpt><trkpt lat="38.646600" lon="-5.798780"><ele>384.7</ele><time>2010-03-01T13:17:50Z</time></trkpt><trkpt lat="38.646650" lon="-5.798820"><ele>386.1</ele><time>2010-03-01T13:18:13Z</time></trkpt><trkpt lat="38.646650" lon="-5.798890"><ele>385.1</ele><time>2010-03-01T13:18:36Z</time></trkpt><trkpt lat="38.646790" lon="-5.799100"><ele>385.1</ele><time>2010-03-01T13:28:38Z</time></trkpt><trkpt lat="38.646720" lon="-5.798970"><ele>386.1</ele><time>2010-03-01T13:28:58Z</time></trkpt><trkpt lat="38.646700" lon="-5.798900"><ele>386.6</ele><time>2010-03-01T13:29:40Z</time></trkpt><trkpt lat="38.646580" lon="-5.798750"><ele>387.6</ele><time>2010-03-01T13:29:55Z</time></trkpt><trkpt lat="38.646530" lon="-5.798690"><ele>387.1</ele><time>2010-03-01T13:29:59Z</time></trkpt><trkpt lat="38.646200" lon="-5.798510"><ele>387.1</ele><time>2010-03-01T13:30:26Z</time></trkpt><trkpt lat="38.645800" lon="-5.798310"><ele>387.6</ele><time>2010-03-01T13:30:57Z</time></trkpt><trkpt lat="38.645640" lon="-5.798240"><ele>387.6</ele><time>2010-03-01T13:31:24Z</time></trkpt><trkpt lat="38.645650" lon="-5.798250"><ele>387.1</ele><time>2010-03-01T13:32:07Z</time></trkpt><trkpt lat="38.645330" lon="-5.798120"><ele>387.6</ele><time>2010-03-01T13:32:33Z</time></trkpt><trkpt lat="38.645080" lon="-5.798000"><ele>387.6</ele><time>2010-03-01T13:32:52Z</time></trkpt><trkpt lat="38.645010" lon="-5.798000"><ele>387.6</ele><time>2010-03-01T13:32:57Z</time></trkpt><trkpt lat="38.644779" lon="-5.797727"><ele>387.6</ele><time>2010-03-01T13:33:24Z</time></trkpt><trkpt lat="38.644637" lon="-5.797630"><ele>387.6</ele><time>2010-03-01T13:33:31Z</time></trkpt><trkpt lat="38.644549" lon="-5.797557"><ele>387.6</ele><time>2010-03-01T13:34:02Z</time></trkpt><trkpt lat="38.644496" lon="-5.797509"><ele>388.0</ele><time>2010-03-01T13:34:13Z</time></trkpt><trkpt lat="38.644217" lon="-5.797108"><ele>387.1</ele><time>2010-03-01T13:35:50Z</time></trkpt><trkpt lat="38.644044" lon="-5.796825"><ele>386.6</ele><time>2010-03-01T13:36:08Z</time></trkpt><trkpt lat="38.643833" lon="-5.796587"><ele>386.6</ele><time>2010-03-01T13:36:09Z</time></trkpt><trkpt lat="38.643746" lon="-5.796492"><ele>387.6</ele><time>2010-03-01T13:36:17Z</time></trkpt><trkpt lat="38.643641" lon="-5.796327"><ele>386.6</ele><time>2010-03-01T13:36:45Z</time></trkpt><trkpt lat="38.643503" lon="-5.796092"><ele>386.6</ele><time>2010-03-01T13:37:18Z</time></trkpt><trkpt lat="38.643382" lon="-5.795857"><ele>387.1</ele><time>2010-03-01T13:37:49Z</time></trkpt><trkpt lat="38.643243" lon="-5.795645"><ele>387.1</ele><time>2010-03-01T13:39:07Z</time></trkpt><trkpt lat="38.643071" lon="-5.795317"><ele>387.1</ele><time>2010-03-01T13:39:09Z</time></trkpt><trkpt lat="38.642983" lon="-5.795245"><ele>388.0</ele><time>2010-03-01T13:39:37Z</time></trkpt><trkpt lat="38.642814" lon="-5.794755"><ele>388.0</ele><time>2010-03-01T13:39:54Z</time></trkpt><trkpt lat="38.642715" lon="-5.794384"><ele>388.5</ele><time>2010-03-01T13:40:12Z</time></trkpt><trkpt lat="38.642577" lon="-5.794103"><ele>389.0</ele><time>2010-03-01T13:40:44Z</time></trkpt><trkpt lat="38.642457" lon="-5.793868"><ele>389.0</ele><time>2010-03-01T13:41:09Z</time></trkpt><trkpt lat="38.642388" lon="-5.793728"><ele>389.5</ele><time>2010-03-01T13:41:34Z</time></trkpt><trkpt lat="38.642255" lon="-5.793286"><ele>389.5</ele><time>2010-03-01T13:41:52Z</time></trkpt><trkpt lat="38.642186" lon="-5.793146"><ele>389.5</ele><time>2010-03-01T13:42:08Z</time></trkpt><trkpt lat="38.642116" lon="-5.793051"><ele>390.4</ele><time>2010-03-01T13:42:32Z</time></trkpt><trkpt lat="38.642138" lon="-5.792891"><ele>391.4</ele><time>2010-03-01T13:43:25Z</time></trkpt><trkpt lat="38.642123" lon="-5.792776"><ele>392.4</ele><time>2010-03-01T13:43:47Z</time></trkpt><trkpt lat="38.642072" lon="-5.792613"><ele>392.4</ele><time>2010-03-01T13:44:11Z</time></trkpt><trkpt lat="38.642093" lon="-5.792499"><ele>392.8</ele><time>2010-03-01T13:44:37Z</time></trkpt><trkpt lat="38.642079" lon="-5.792314"><ele>392.8</ele><time>2010-03-01T13:44:54Z</time></trkpt><trkpt lat="38.642066" lon="-5.792130"><ele>393.3</ele><time>2010-03-01T13:45:05Z</time></trkpt><trkpt lat="38.642070" lon="-5.791946"><ele>393.3</ele><time>2010-03-01T13:45:17Z</time></trkpt><trkpt lat="38.642110" lon="-5.791880"><ele>392.4</ele><time>2010-03-01T13:45:35Z</time></trkpt><trkpt lat="38.642160" lon="-5.791690"><ele>392.4</ele><time>2010-03-01T13:46:35Z</time></trkpt><trkpt lat="38.641870" lon="-5.791220"><ele>393.3</ele><time>2010-03-01T13:47:09Z</time></trkpt><trkpt lat="38.641870" lon="-5.790680"><ele>393.3</ele><time>2010-03-01T13:47:42Z</time></trkpt><trkpt lat="38.641740" lon="-5.790150"><ele>394.7</ele><time>2010-03-01T13:48:13Z</time></trkpt><trkpt lat="38.641620" lon="-5.789640"><ele>396.7</ele><time>2010-03-01T13:48:44Z</time></trkpt><trkpt lat="38.641630" lon="-5.789590"><ele>398.6</ele><time>2010-03-01T13:48:46Z</time></trkpt><trkpt lat="38.641860" lon="-5.789320"><ele>397.6</ele><time>2010-03-01T13:49:12Z</time></trkpt><trkpt lat="38.641690" lon="-5.788630"><ele>397.6</ele><time>2010-03-01T13:49:51Z</time></trkpt><trkpt lat="38.641630" lon="-5.788390"><ele>396.7</ele><time>2010-03-01T13:50:06Z</time></trkpt><trkpt lat="38.641500" lon="-5.788030"><ele>396.7</ele><time>2010-03-01T13:50:29Z</time></trkpt><trkpt lat="38.641560" lon="-5.787940"><ele>397.2</ele><time>2010-03-01T13:50:49Z</time></trkpt><trkpt lat="38.641550" lon="-5.787950"><ele>398.1</ele><time>2010-03-01T13:50:57Z</time></trkpt><trkpt lat="38.641540" lon="-5.787970"><ele>396.7</ele><time>2010-03-01T13:51:27Z</time></trkpt><trkpt lat="38.641500" lon="-5.787980"><ele>397.2</ele><time>2010-03-01T13:51:50Z</time></trkpt><trkpt lat="38.641490" lon="-5.787980"><ele>398.6</ele><time>2010-03-01T13:51:50Z</time></trkpt><trkpt lat="38.641270" lon="-5.788150"><ele>401.0</ele><time>2010-03-01T13:52:10Z</time></trkpt><trkpt lat="38.640930" lon="-5.788390"><ele>403.9</ele><time>2010-03-01T13:52:43Z</time></trkpt><trkpt lat="38.640750" lon="-5.788540"><ele>405.3</ele><time>2010-03-01T13:57:48Z</time></trkpt><trkpt lat="38.640620" lon="-5.788560"><ele>406.3</ele><time>2010-03-01T13:58:07Z</time></trkpt><trkpt lat="38.640370" lon="-5.788680"><ele>407.2</ele><time>2010-03-01T13:58:28Z</time></trkpt><trkpt lat="38.640130" lon="-5.788730"><ele>408.2</ele><time>2010-03-01T13:58:47Z</time></trkpt><trkpt lat="38.640120" lon="-5.788720"><ele>408.7</ele><time>2010-03-01T13:58:48Z</time></trkpt><trkpt lat="38.640060" lon="-5.788680"><ele>409.2</ele><time>2010-03-01T13:58:54Z</time></trkpt><trkpt lat="38.640030" lon="-5.788650"><ele>410.6</ele><time>2010-03-01T13:58:57Z</time></trkpt><trkpt lat="38.639750" lon="-5.788500"><ele>414.0</ele><time>2010-03-01T13:59:18Z</time></trkpt><trkpt lat="38.639500" lon="-5.788190"><ele>415.0</ele><time>2010-03-01T13:59:45Z</time></trkpt><trkpt lat="38.639280" lon="-5.787900"><ele>418.3</ele><time>2010-03-01T14:00:11Z</time></trkpt><trkpt lat="38.639000" lon="-5.787620"><ele>417.4</ele><time>2010-03-01T14:00:39Z</time></trkpt><trkpt lat="38.638650" lon="-5.787230"><ele>416.9</ele><time>2010-03-01T14:01:12Z</time></trkpt><trkpt lat="38.638400" lon="-5.786880"><ele>414.0</ele><time>2010-03-01T14:01:39Z</time></trkpt><trkpt lat="38.638230" lon="-5.786700"><ele>412.1</ele><time>2010-03-01T14:02:07Z</time></trkpt><trkpt lat="38.638040" lon="-5.786460"><ele>411.1</ele><time>2010-03-01T14:02:39Z</time></trkpt><trkpt lat="38.637950" lon="-5.786550"><ele>412.5</ele><time>2010-03-01T14:04:49Z</time></trkpt><trkpt lat="38.637870" lon="-5.786710"><ele>412.5</ele><time>2010-03-01T14:05:13Z</time></trkpt><trkpt lat="38.637680" lon="-5.787090"><ele>412.1</ele><time>2010-03-01T14:05:39Z</time></trkpt><trkpt lat="38.637510" lon="-5.787500"><ele>411.6</ele><time>2010-03-01T14:06:07Z</time></trkpt><trkpt lat="38.637430" lon="-5.787690"><ele>411.6</ele><time>2010-03-01T14:06:30Z</time></trkpt><trkpt lat="38.637250" lon="-5.788120"><ele>411.1</ele><time>2010-03-01T14:06:53Z</time></trkpt><trkpt lat="38.637140" lon="-5.788430"><ele>411.1</ele><time>2010-03-01T14:07:12Z</time></trkpt><trkpt lat="38.637030" lon="-5.789090"><ele>409.7</ele><time>2010-03-01T14:07:48Z</time></trkpt><trkpt lat="38.636990" lon="-5.789260"><ele>408.7</ele><time>2010-03-01T14:08:14Z</time></trkpt><trkpt lat="38.636860" lon="-5.789850"><ele>407.2</ele><time>2010-03-01T14:08:45Z</time></trkpt><trkpt lat="38.636740" lon="-5.790510"><ele>405.8</ele><time>2010-03-01T14:09:20Z</time></trkpt><trkpt lat="38.636610" lon="-5.791150"><ele>406.3</ele><time>2010-03-01T14:09:55Z</time></trkpt><trkpt lat="38.636600" lon="-5.791750"><ele>405.3</ele><time>2010-03-01T14:10:26Z</time></trkpt><trkpt lat="38.636660" lon="-5.792400"><ele>405.8</ele><time>2010-03-01T14:11:03Z</time></trkpt><trkpt lat="38.636660" lon="-5.792930"><ele>406.8</ele><time>2010-03-01T14:11:31Z</time></trkpt><trkpt lat="38.636600" lon="-5.793600"><ele>406.8</ele><time>2010-03-01T14:12:08Z</time></trkpt><trkpt lat="38.636570" lon="-5.794060"><ele>407.2</ele><time>2010-03-01T14:12:32Z</time></trkpt><trkpt lat="38.636490" lon="-5.794640"><ele>407.2</ele><time>2010-03-01T14:13:03Z</time></trkpt><trkpt lat="38.636480" lon="-5.794840"><ele>405.8</ele><time>2010-03-01T14:13:15Z</time></trkpt><trkpt lat="38.636370" lon="-5.795550"><ele>407.2</ele><time>2010-03-01T14:13:53Z</time></trkpt><trkpt lat="38.636200" lon="-5.796090"><ele>406.8</ele><time>2010-03-01T14:14:25Z</time></trkpt><trkpt lat="38.635960" lon="-5.796730"><ele>405.8</ele><time>2010-03-01T14:15:05Z</time></trkpt><trkpt lat="38.635670" lon="-5.797250"><ele>405.8</ele><time>2010-03-01T14:15:41Z</time></trkpt><trkpt lat="38.635440" lon="-5.797730"><ele>405.3</ele><time>2010-03-01T14:16:12Z</time></trkpt><trkpt lat="38.635260" lon="-5.798100"><ele>405.8</ele><time>2010-03-01T14:16:35Z</time></trkpt><trkpt lat="38.634870" lon="-5.798630"><ele>407.7</ele><time>2010-03-01T14:17:17Z</time></trkpt><trkpt lat="38.634700" lon="-5.798760"><ele>408.2</ele><time>2010-03-01T14:17:45Z</time></trkpt><trkpt lat="38.634400" lon="-5.798910"><ele>408.2</ele><time>2010-03-01T14:18:11Z</time></trkpt><trkpt lat="38.634300" lon="-5.798960"><ele>404.4</ele><time>2010-03-01T14:18:19Z</time></trkpt><trkpt lat="38.634290" lon="-5.798970"><ele>404.4</ele><time>2010-03-01T14:18:19Z</time></trkpt><trkpt lat="38.634280" lon="-5.798980"><ele>404.4</ele><time>2010-03-01T14:18:20Z</time></trkpt><trkpt lat="38.634050" lon="-5.799220"><ele>401.0</ele><time>2010-03-01T14:18:43Z</time></trkpt><trkpt lat="38.633960" lon="-5.799300"><ele>399.1</ele><time>2010-03-01T14:18:50Z</time></trkpt><trkpt lat="38.633800" lon="-5.799440"><ele>395.7</ele><time>2010-03-01T14:19:03Z</time></trkpt><trkpt lat="38.633540" lon="-5.799690"><ele>395.2</ele><time>2010-03-01T14:19:25Z</time></trkpt><trkpt lat="38.633090" lon="-5.800070"><ele>394.7</ele><time>2010-03-01T14:20:03Z</time></trkpt><trkpt lat="38.633040" lon="-5.800150"><ele>394.7</ele><time>2010-03-01T14:20:15Z</time></trkpt><trkpt lat="38.632990" lon="-5.800180"><ele>394.3</ele><time>2010-03-01T14:20:24Z</time></trkpt><trkpt lat="38.633010" lon="-5.800190"><ele>394.3</ele><time>2010-03-01T14:22:44Z</time></trkpt><trkpt lat="38.633010" lon="-5.800380"><ele>393.3</ele><time>2010-03-01T14:23:04Z</time></trkpt><trkpt lat="38.632880" lon="-5.800820"><ele>391.9</ele><time>2010-03-01T14:23:32Z</time></trkpt><trkpt lat="38.632840" lon="-5.800860"><ele>393.3</ele><time>2010-03-01T14:23:36Z</time></trkpt><trkpt lat="38.632790" lon="-5.800900"><ele>393.3</ele><time>2010-03-01T14:23:42Z</time></trkpt><trkpt lat="38.632710" lon="-5.801050"><ele>393.3</ele><time>2010-03-01T14:23:54Z</time></trkpt><trkpt lat="38.632700" lon="-5.801090"><ele>392.8</ele><time>2010-03-01T14:23:58Z</time></trkpt><trkpt lat="38.632680" lon="-5.801110"><ele>392.4</ele><time>2010-03-01T14:23:59Z</time></trkpt><trkpt lat="38.632420" lon="-5.801250"><ele>393.8</ele><time>2010-03-01T14:24:22Z</time></trkpt><trkpt lat="38.632200" lon="-5.801470"><ele>392.8</ele><time>2010-03-01T14:24:42Z</time></trkpt><trkpt lat="38.631990" lon="-5.801560"><ele>393.3</ele><time>2010-03-01T14:25:01Z</time></trkpt><trkpt lat="38.631840" lon="-5.801630"><ele>393.3</ele><time>2010-03-01T14:25:12Z</time></trkpt><trkpt lat="38.631800" lon="-5.801630"><ele>393.3</ele><time>2010-03-01T14:25:31Z</time></trkpt><trkpt lat="38.631790" lon="-5.801620"><ele>393.3</ele><time>2010-03-01T14:25:44Z</time></trkpt><trkpt lat="38.631550" lon="-5.801840"><ele>392.4</ele><time>2010-03-01T14:26:07Z</time></trkpt><trkpt lat="38.631500" lon="-5.801930"><ele>392.4</ele><time>2010-03-01T14:26:14Z</time></trkpt><trkpt lat="38.631200" lon="-5.802310"><ele>392.8</ele><time>2010-03-01T14:26:59Z</time></trkpt><trkpt lat="38.631170" lon="-5.802490"><ele>391.9</ele><time>2010-03-01T14:27:05Z</time></trkpt><trkpt lat="38.631112" lon="-5.802640"><ele>393.3</ele><time>2010-03-01T14:30:51Z</time></trkpt><trkpt lat="38.631002" lon="-5.802727"><ele>392.8</ele><time>2010-03-01T14:31:19Z</time></trkpt><trkpt lat="38.630802" lon="-5.802789"><ele>394.3</ele><time>2010-03-01T14:31:30Z</time></trkpt><trkpt lat="38.630694" lon="-5.802784"><ele>395.7</ele><time>2010-03-01T14:31:35Z</time></trkpt><trkpt lat="38.630406" lon="-5.802773"><ele>395.7</ele><time>2010-03-01T14:31:38Z</time></trkpt><trkpt lat="38.630336" lon="-5.802701"><ele>396.2</ele><time>2010-03-01T14:31:49Z</time></trkpt><trkpt lat="38.630282" lon="-5.802676"><ele>396.7</ele><time>2010-03-01T14:32:08Z</time></trkpt><trkpt lat="38.630303" lon="-5.802562"><ele>396.2</ele><time>2010-03-01T14:32:09Z</time></trkpt><trkpt lat="38.630232" lon="-5.802537"><ele>397.2</ele><time>2010-03-01T14:32:13Z</time></trkpt><trkpt lat="38.630178" lon="-5.802534"><ele>396.7</ele><time>2010-03-01T14:32:24Z</time></trkpt><trkpt lat="38.630090" lon="-5.802410"><ele>396.7</ele><time>2010-03-01T14:32:44Z</time></trkpt><trkpt lat="38.629910" lon="-5.802430"><ele>400.0</ele><time>2010-03-01T14:33:00Z</time></trkpt><trkpt lat="38.629900" lon="-5.802430"><ele>400.0</ele><time>2010-03-01T14:33:02Z</time></trkpt><trkpt lat="38.629690" lon="-5.802440"><ele>403.9</ele><time>2010-03-01T14:33:19Z</time></trkpt><trkpt lat="38.629510" lon="-5.802320"><ele>406.8</ele><time>2010-03-01T14:33:36Z</time></trkpt><trkpt lat="38.629120" lon="-5.802090"><ele>408.7</ele><time>2010-03-01T14:34:08Z</time></trkpt><trkpt lat="38.628730" lon="-5.801680"><ele>410.6</ele><time>2010-03-01T14:34:44Z</time></trkpt><trkpt lat="38.628560" lon="-5.801480"><ele>410.1</ele><time>2010-03-01T14:35:02Z</time></trkpt><trkpt lat="38.628550" lon="-5.801410"><ele>410.1</ele><time>2010-03-01T14:35:25Z</time></trkpt><trkpt lat="38.628540" lon="-5.801370"><ele>410.6</ele><time>2010-03-01T14:36:08Z</time></trkpt><trkpt lat="38.628540" lon="-5.801380"><ele>410.1</ele><time>2010-03-01T14:37:13Z</time></trkpt><trkpt lat="38.628530" lon="-5.801380"><ele>410.1</ele><time>2010-03-01T14:37:24Z</time></trkpt><trkpt lat="38.628459" lon="-5.801296"><ele>410.1</ele><time>2010-03-01T14:38:00Z</time></trkpt><trkpt lat="38.628440" lon="-5.801340"><ele>409.2</ele><time>2010-03-01T14:38:07Z</time></trkpt><trkpt lat="38.628370" lon="-5.801260"><ele>408.7</ele><time>2010-03-01T14:38:15Z</time></trkpt><trkpt lat="38.628360" lon="-5.801200"><ele>406.8</ele><time>2010-03-01T14:38:19Z</time></trkpt><trkpt lat="38.628350" lon="-5.801130"><ele>406.8</ele><time>2010-03-01T14:38:23Z</time></trkpt><trkpt lat="38.628360" lon="-5.801060"><ele>407.2</ele><time>2010-03-01T14:38:29Z</time></trkpt><trkpt lat="38.628350" lon="-5.801040"><ele>407.7</ele><time>2010-03-01T14:38:31Z</time></trkpt><trkpt lat="38.628340" lon="-5.801010"><ele>407.2</ele><time>2010-03-01T14:38:33Z</time></trkpt><trkpt lat="38.628190" lon="-5.800710"><ele>407.2</ele><time>2010-03-01T14:38:57Z</time></trkpt><trkpt lat="38.628190" lon="-5.800570"><ele>405.8</ele><time>2010-03-01T14:39:44Z</time></trkpt><trkpt lat="38.628170" lon="-5.800470"><ele>405.8</ele><time>2010-03-01T14:39:52Z</time></trkpt><trkpt lat="38.628110" lon="-5.800300"><ele>405.3</ele><time>2010-03-01T14:40:04Z</time></trkpt><trkpt lat="38.627810" lon="-5.800130"><ele>405.3</ele><time>2010-03-01T14:40:30Z</time></trkpt><trkpt lat="38.627790" lon="-5.800110"><ele>404.9</ele><time>2010-03-01T14:40:31Z</time></trkpt><trkpt lat="38.627730" lon="-5.800080"><ele>403.4</ele><time>2010-03-01T14:40:50Z</time></trkpt><trkpt lat="38.627720" lon="-5.800050"><ele>402.0</ele><time>2010-03-01T14:41:05Z</time></trkpt><trkpt lat="38.627600" lon="-5.799960"><ele>399.1</ele><time>2010-03-01T14:41:23Z</time></trkpt><trkpt lat="38.627560" lon="-5.799940"><ele>398.6</ele><time>2010-03-01T14:41:56Z</time></trkpt><trkpt lat="38.627540" lon="-5.799860"><ele>397.6</ele><time>2010-03-01T14:42:30Z</time></trkpt><trkpt lat="38.627470" lon="-5.799840"><ele>396.2</ele><time>2010-03-01T14:42:46Z</time></trkpt><trkpt lat="38.627460" lon="-5.799900"><ele>397.6</ele><time>2010-03-01T14:43:07Z</time></trkpt><trkpt lat="38.627500" lon="-5.799950"><ele>397.6</ele><time>2010-03-01T14:43:26Z</time></trkpt><trkpt lat="38.627530" lon="-5.799980"><ele>396.2</ele><time>2010-03-01T14:43:43Z</time></trkpt><trkpt lat="38.627610" lon="-5.800040"><ele>399.6</ele><time>2010-03-01T14:44:02Z</time></trkpt><trkpt lat="38.627660" lon="-5.800090"><ele>400.0</ele><time>2010-03-01T14:44:20Z</time></trkpt><trkpt lat="38.627650" lon="-5.800080"><ele>400.0</ele><time>2010-03-01T14:44:36Z</time></trkpt><trkpt lat="38.627680" lon="-5.800060"><ele>401.0</ele><time>2010-03-01T14:44:47Z</time></trkpt><trkpt lat="38.627750" lon="-5.800030"><ele>403.4</ele><time>2010-03-01T14:45:04Z</time></trkpt><trkpt lat="38.627770" lon="-5.800060"><ele>404.4</ele><time>2010-03-01T14:45:08Z</time></trkpt><trkpt lat="38.628090" lon="-5.800260"><ele>404.9</ele><time>2010-03-01T14:45:39Z</time></trkpt><trkpt lat="38.628200" lon="-5.800510"><ele>405.8</ele><time>2010-03-01T14:45:59Z</time></trkpt><trkpt lat="38.628210" lon="-5.800530"><ele>406.3</ele><time>2010-03-01T14:46:02Z</time></trkpt><trkpt lat="38.628220" lon="-5.800560"><ele>406.8</ele><time>2010-03-01T14:46:03Z</time></trkpt><trkpt lat="38.628320" lon="-5.800860"><ele>408.2</ele><time>2010-03-01T14:46:25Z</time></trkpt><trkpt lat="38.628340" lon="-5.800930"><ele>407.7</ele><time>2010-03-01T14:46:32Z</time></trkpt><trkpt lat="38.628390" lon="-5.801090"><ele>408.7</ele><time>2010-03-01T14:46:44Z</time></trkpt><trkpt lat="38.628450" lon="-5.801210"><ele>409.7</ele><time>2010-03-01T14:46:55Z</time></trkpt><trkpt lat="38.628560" lon="-5.801460"><ele>410.1</ele><time>2010-03-01T14:47:16Z</time></trkpt><trkpt lat="38.628680" lon="-5.801600"><ele>411.1</ele><time>2010-03-01T14:47:42Z</time></trkpt><trkpt lat="38.628950" lon="-5.801889"><ele>411.1</ele><time>2010-03-01T14:48:13Z</time></trkpt><trkpt lat="38.629126" lon="-5.802034"><ele>409.2</ele><time>2010-03-01T14:48:32Z</time></trkpt><trkpt lat="38.629232" lon="-5.802153"><ele>409.2</ele><time>2010-03-01T14:48:50Z</time></trkpt><trkpt lat="38.629320" lon="-5.802225"><ele>407.7</ele><time>2010-03-01T14:49:11Z</time></trkpt><trkpt lat="38.629374" lon="-5.802227"><ele>407.2</ele><time>2010-03-01T14:49:12Z</time></trkpt><trkpt lat="38.629517" lon="-5.802279"><ele>406.8</ele><time>2010-03-01T14:49:34Z</time></trkpt><trkpt lat="38.629640" lon="-5.802399"><ele>403.9</ele><time>2010-03-01T14:49:57Z</time></trkpt><trkpt lat="38.629784" lon="-5.802404"><ele>401.5</ele><time>2010-03-01T14:50:42Z</time></trkpt><trkpt lat="38.629946" lon="-5.802411"><ele>400.0</ele><time>2010-03-01T14:51:03Z</time></trkpt><trkpt lat="38.630000" lon="-5.802413"><ele>398.1</ele><time>2010-03-01T14:51:15Z</time></trkpt><trkpt lat="38.630140" lon="-5.802480"><ele>394.3</ele><time>2010-03-01T14:51:29Z</time></trkpt><trkpt lat="38.630190" lon="-5.802470"><ele>393.8</ele><time>2010-03-01T14:51:33Z</time></trkpt><trkpt lat="38.630360" lon="-5.802760"><ele>391.9</ele><time>2010-03-01T14:52:01Z</time></trkpt><trkpt lat="38.630450" lon="-5.802810"><ele>392.4</ele><time>2010-03-01T14:52:08Z</time></trkpt><trkpt lat="38.630490" lon="-5.802780"><ele>391.4</ele><time>2010-03-01T14:52:32Z</time></trkpt><trkpt lat="38.630580" lon="-5.802830"><ele>391.4</ele><time>2010-03-01T14:53:01Z</time></trkpt><trkpt lat="38.630570" lon="-5.802830"><ele>392.4</ele><time>2010-03-01T14:53:37Z</time></trkpt><trkpt lat="38.630600" lon="-5.802800"><ele>391.9</ele><time>2010-03-01T14:55:29Z</time></trkpt><trkpt lat="38.630870" lon="-5.802770"><ele>391.4</ele><time>2010-03-01T14:55:53Z</time></trkpt><trkpt lat="38.630930" lon="-5.802760"><ele>391.4</ele><time>2010-03-01T14:56:00Z</time></trkpt><trkpt lat="38.631140" lon="-5.802650"><ele>391.4</ele><time>2010-03-01T14:56:27Z</time></trkpt><trkpt lat="38.631200" lon="-5.802580"><ele>391.4</ele><time>2010-03-01T14:57:55Z</time></trkpt><trkpt lat="38.631190" lon="-5.802500"><ele>390.4</ele><time>2010-03-01T14:58:04Z</time></trkpt><trkpt lat="38.631270" lon="-5.802200"><ele>391.9</ele><time>2010-03-01T14:58:27Z</time></trkpt><trkpt lat="38.631460" lon="-5.802090"><ele>391.9</ele><time>2010-03-01T14:58:46Z</time></trkpt><trkpt lat="38.631670" lon="-5.801760"><ele>392.8</ele><time>2010-03-01T14:59:08Z</time></trkpt><trkpt lat="38.631870" lon="-5.801640"><ele>392.4</ele><time>2010-03-01T14:59:24Z</time></trkpt><trkpt lat="38.632240" lon="-5.801450"><ele>391.9</ele><time>2010-03-01T14:59:51Z</time></trkpt><trkpt lat="38.632580" lon="-5.801120"><ele>391.4</ele><time>2010-03-01T15:00:22Z</time></trkpt><trkpt lat="38.632740" lon="-5.801000"><ele>390.9</ele><time>2010-03-01T15:00:41Z</time></trkpt><trkpt lat="38.632830" lon="-5.800770"><ele>391.4</ele><time>2010-03-01T15:01:00Z</time></trkpt><trkpt lat="38.632910" lon="-5.800620"><ele>391.4</ele><time>2010-03-01T15:01:12Z</time></trkpt><trkpt lat="38.632970" lon="-5.800570"><ele>391.4</ele><time>2010-03-01T15:01:19Z</time></trkpt><trkpt lat="38.633000" lon="-5.800170"><ele>393.8</ele><time>2010-03-01T15:01:43Z</time></trkpt><trkpt lat="38.633310" lon="-5.799870"><ele>394.3</ele><time>2010-03-01T15:02:13Z</time></trkpt><trkpt lat="38.633760" lon="-5.799480"><ele>395.7</ele><time>2010-03-01T15:02:52Z</time></trkpt><trkpt lat="38.633990" lon="-5.799270"><ele>399.1</ele><time>2010-03-01T15:03:16Z</time></trkpt><trkpt lat="38.634030" lon="-5.799230"><ele>400.0</ele><time>2010-03-01T15:03:19Z</time></trkpt><trkpt lat="38.634170" lon="-5.799110"><ele>403.4</ele><time>2010-03-01T15:03:34Z</time></trkpt><trkpt lat="38.634470" lon="-5.798870"><ele>406.3</ele><time>2010-03-01T15:04:05Z</time></trkpt><trkpt lat="38.634520" lon="-5.798870"><ele>407.7</ele><time>2010-03-01T15:04:33Z</time></trkpt><trkpt lat="38.634520" lon="-5.798870"><ele>406.3</ele><time>2010-03-01T15:04:35Z</time></trkpt><trkpt lat="38.634830" lon="-5.798680"><ele>406.3</ele><time>2010-03-01T15:05:22Z</time></trkpt><trkpt lat="38.635250" lon="-5.798110"><ele>405.8</ele><time>2010-03-01T15:06:02Z</time></trkpt><trkpt lat="38.635500" lon="-5.797610"><ele>404.9</ele><time>2010-03-01T15:06:36Z</time></trkpt><trkpt lat="38.635710" lon="-5.797170"><ele>405.3</ele><time>2010-03-01T15:07:03Z</time></trkpt><trkpt lat="38.635990" lon="-5.796630"><ele>404.9</ele><time>2010-03-01T15:07:38Z</time></trkpt><trkpt lat="38.636240" lon="-5.795920"><ele>406.3</ele><time>2010-03-01T15:08:20Z</time></trkpt><trkpt lat="38.636420" lon="-5.795370"><ele>405.8</ele><time>2010-03-01T15:08:54Z</time></trkpt><trkpt lat="38.636500" lon="-5.794940"><ele>406.3</ele><time>2010-03-01T15:09:27Z</time></trkpt><trkpt lat="38.636500" lon="-5.794950"><ele>405.3</ele><time>2010-03-01T15:09:49Z</time></trkpt><trkpt lat="38.636550" lon="-5.794420"><ele>404.9</ele><time>2010-03-01T15:10:19Z</time></trkpt><trkpt lat="38.636580" lon="-5.793920"><ele>405.8</ele><time>2010-03-01T15:10:44Z</time></trkpt><trkpt lat="38.636640" lon="-5.793270"><ele>405.8</ele><time>2010-03-01T15:11:18Z</time></trkpt><trkpt lat="38.636680" lon="-5.792570"><ele>404.4</ele><time>2010-03-01T15:11:56Z</time></trkpt><trkpt lat="38.636620" lon="-5.791810"><ele>403.9</ele><time>2010-03-01T15:12:35Z</time></trkpt><trkpt lat="38.636600" lon="-5.791150"><ele>404.4</ele><time>2010-03-01T15:13:12Z</time></trkpt><trkpt lat="38.636640" lon="-5.790840"><ele>403.9</ele><time>2010-03-01T15:13:44Z</time></trkpt><trkpt lat="38.636650" lon="-5.790850"><ele>404.4</ele><time>2010-03-01T15:14:08Z</time></trkpt><trkpt lat="38.636760" lon="-5.790270"><ele>405.3</ele><time>2010-03-01T15:14:41Z</time></trkpt><trkpt lat="38.636910" lon="-5.789530"><ele>406.8</ele><time>2010-03-01T15:15:21Z</time></trkpt><trkpt lat="38.637040" lon="-5.788890"><ele>409.2</ele><time>2010-03-01T15:15:58Z</time></trkpt><trkpt lat="38.637150" lon="-5.788290"><ele>412.1</ele><time>2010-03-01T15:16:31Z</time></trkpt><trkpt lat="38.637380" lon="-5.787710"><ele>412.5</ele><time>2010-03-01T15:17:09Z</time></trkpt><trkpt lat="38.637640" lon="-5.787180"><ele>413.0</ele><time>2010-03-01T15:17:43Z</time></trkpt><trkpt lat="38.637860" lon="-5.786660"><ele>414.0</ele><time>2010-03-01T15:18:14Z</time></trkpt><trkpt lat="38.638010" lon="-5.786400"><ele>413.5</ele><time>2010-03-01T15:18:42Z</time></trkpt><trkpt lat="38.638040" lon="-5.786340"><ele>414.0</ele><time>2010-03-01T15:19:04Z</time></trkpt><trkpt lat="38.638020" lon="-5.786410"><ele>414.0</ele><time>2010-03-01T15:19:24Z</time></trkpt><trkpt lat="38.638130" lon="-5.786170"><ele>414.0</ele><time>2010-03-01T15:21:01Z</time></trkpt><trkpt lat="38.638410" lon="-5.785650"><ele>413.0</ele><time>2010-03-01T15:21:36Z</time></trkpt><trkpt lat="38.638640" lon="-5.785100"><ele>412.1</ele><time>2010-03-01T15:22:10Z</time></trkpt><trkpt lat="38.638890" lon="-5.784430"><ele>410.6</ele><time>2010-03-01T15:22:49Z</time></trkpt><trkpt lat="38.639140" lon="-5.783860"><ele>409.7</ele><time>2010-03-01T15:23:26Z</time></trkpt><trkpt lat="38.639450" lon="-5.783280"><ele>408.7</ele><time>2010-03-01T15:24:04Z</time></trkpt><trkpt lat="38.639720" lon="-5.782740"><ele>407.7</ele><time>2010-03-01T15:24:37Z</time></trkpt><trkpt lat="38.639880" lon="-5.782110"><ele>407.7</ele><time>2010-03-01T15:25:15Z</time></trkpt><trkpt lat="38.639900" lon="-5.781590"><ele>407.7</ele><time>2010-03-01T15:25:45Z</time></trkpt><trkpt lat="38.639850" lon="-5.781170"><ele>408.2</ele><time>2010-03-01T15:26:12Z</time></trkpt><trkpt lat="38.639680" lon="-5.780720"><ele>408.7</ele><time>2010-03-01T15:26:42Z</time></trkpt><trkpt lat="38.639420" lon="-5.780170"><ele>409.7</ele><time>2010-03-01T15:27:18Z</time></trkpt><trkpt lat="38.639330" lon="-5.780060"><ele>410.6</ele><time>2010-03-01T15:27:38Z</time></trkpt><trkpt lat="38.639330" lon="-5.780040"><ele>410.6</ele><time>2010-03-01T15:28:00Z</time></trkpt><trkpt lat="38.639310" lon="-5.779990"><ele>410.6</ele><time>2010-03-01T15:28:04Z</time></trkpt><trkpt lat="38.639210" lon="-5.779780"><ele>411.6</ele><time>2010-03-01T15:28:31Z</time></trkpt><trkpt lat="38.638950" lon="-5.779260"><ele>412.5</ele><time>2010-03-01T15:29:07Z</time></trkpt><trkpt lat="38.638760" lon="-5.778720"><ele>413.0</ele><time>2010-03-01T15:29:45Z</time></trkpt><trkpt lat="38.638620" lon="-5.778230"><ele>414.0</ele><time>2010-03-01T15:30:15Z</time></trkpt><trkpt lat="38.638460" lon="-5.777690"><ele>414.5</ele><time>2010-03-01T15:30:46Z</time></trkpt><trkpt lat="38.638370" lon="-5.776990"><ele>415.0</ele><time>2010-03-01T15:31:25Z</time></trkpt><trkpt lat="38.638340" lon="-5.776310"><ele>416.4</ele><time>2010-03-01T15:32:03Z</time></trkpt><trkpt lat="38.638330" lon="-5.775670"><ele>416.9</ele><time>2010-03-01T15:32:39Z</time></trkpt><trkpt lat="38.638340" lon="-5.775090"><ele>417.8</ele><time>2010-03-01T15:33:12Z</time></trkpt><trkpt lat="38.638350" lon="-5.774400"><ele>418.8</ele><time>2010-03-01T15:33:48Z</time></trkpt><trkpt lat="38.638400" lon="-5.773610"><ele>419.7</ele><time>2010-03-01T15:34:31Z</time></trkpt><trkpt lat="38.638440" lon="-5.772970"><ele>420.7</ele><time>2010-03-01T15:35:08Z</time></trkpt><trkpt lat="38.638470" lon="-5.772680"><ele>421.2</ele><time>2010-03-01T15:35:36Z</time></trkpt><trkpt lat="38.638460" lon="-5.772740"><ele>421.2</ele><time>2010-03-01T15:35:43Z</time></trkpt><trkpt lat="38.638460" lon="-5.772880"><ele>420.2</ele><time>2010-03-01T15:36:00Z</time></trkpt><trkpt lat="38.638460" lon="-5.772870"><ele>421.2</ele><time>2010-03-01T15:36:18Z</time></trkpt><trkpt lat="38.638460" lon="-5.772710"><ele>421.2</ele><time>2010-03-01T15:36:29Z</time></trkpt><trkpt lat="38.638530" lon="-5.772360"><ele>421.7</ele><time>2010-03-01T15:36:57Z</time></trkpt><trkpt lat="38.638550" lon="-5.772330"><ele>421.7</ele><time>2010-03-01T15:37:17Z</time></trkpt><trkpt lat="38.638590" lon="-5.772030"><ele>423.1</ele><time>2010-03-01T15:38:36Z</time></trkpt><trkpt lat="38.638560" lon="-5.772040"><ele>422.1</ele><time>2010-03-01T15:38:52Z</time></trkpt><trkpt lat="38.638580" lon="-5.772030"><ele>423.1</ele><time>2010-03-01T15:39:08Z</time></trkpt><trkpt lat="38.638630" lon="-5.771750"><ele>423.6</ele><time>2010-03-01T15:39:27Z</time></trkpt><trkpt lat="38.638640" lon="-5.771300"><ele>424.1</ele><time>2010-03-01T15:39:53Z</time></trkpt><trkpt lat="38.638600" lon="-5.770790"><ele>424.1</ele><time>2010-03-01T15:40:21Z</time></trkpt><trkpt lat="38.638550" lon="-5.770310"><ele>424.6</ele><time>2010-03-01T15:40:47Z</time></trkpt><trkpt lat="38.638620" lon="-5.769720"><ele>427.5</ele><time>2010-03-01T15:41:22Z</time></trkpt><trkpt lat="38.638790" lon="-5.769370"><ele>430.3</ele><time>2010-03-01T15:41:45Z</time></trkpt><trkpt lat="38.638970" lon="-5.768860"><ele>432.7</ele><time>2010-03-01T15:42:17Z</time></trkpt><trkpt lat="38.639020" lon="-5.768310"><ele>433.7</ele><time>2010-03-01T15:42:50Z</time></trkpt><trkpt lat="38.639030" lon="-5.768100"><ele>435.6</ele><time>2010-03-01T15:43:10Z</time></trkpt><trkpt lat="38.639040" lon="-5.768080"><ele>435.1</ele><time>2010-03-01T15:43:12Z</time></trkpt><trkpt lat="38.639070" lon="-5.768030"><ele>435.1</ele><time>2010-03-01T15:43:17Z</time></trkpt><trkpt lat="38.639190" lon="-5.767820"><ele>435.6</ele><time>2010-03-01T15:43:39Z</time></trkpt><trkpt lat="38.639190" lon="-5.767850"><ele>435.1</ele><time>2010-03-01T15:44:24Z</time></trkpt><trkpt lat="38.639170" lon="-5.767830"><ele>435.6</ele><time>2010-03-01T15:44:55Z</time></trkpt><trkpt lat="38.639370" lon="-5.767430"><ele>436.6</ele><time>2010-03-01T15:45:26Z</time></trkpt><trkpt lat="38.639640" lon="-5.766990"><ele>439.9</ele><time>2010-03-01T15:45:57Z</time></trkpt><trkpt lat="38.639890" lon="-5.766430"><ele>442.4</ele><time>2010-03-01T15:46:35Z</time></trkpt><trkpt lat="38.639770" lon="-5.765860"><ele>441.9</ele><time>2010-03-01T15:47:07Z</time></trkpt><trkpt lat="38.639740" lon="-5.765780"><ele>441.9</ele><time>2010-03-01T15:47:13Z</time></trkpt><trkpt lat="38.639720" lon="-5.765660"><ele>441.9</ele><time>2010-03-01T15:47:20Z</time></trkpt><trkpt lat="38.639620" lon="-5.765210"><ele>441.4</ele><time>2010-03-01T15:47:47Z</time></trkpt><trkpt lat="38.639560" lon="-5.764860"><ele>442.4</ele><time>2010-03-01T15:48:07Z</time></trkpt><trkpt lat="38.639610" lon="-5.764360"><ele>442.4</ele><time>2010-03-01T15:48:35Z</time></trkpt><trkpt lat="38.639740" lon="-5.763940"><ele>443.8</ele><time>2010-03-01T15:49:09Z</time></trkpt><trkpt lat="38.639720" lon="-5.763980"><ele>442.8</ele><time>2010-03-01T15:49:33Z</time></trkpt><trkpt lat="38.639800" lon="-5.763780"><ele>441.9</ele><time>2010-03-01T15:50:38Z</time></trkpt><trkpt lat="38.639810" lon="-5.763770"><ele>444.7</ele><time>2010-03-01T15:50:39Z</time></trkpt><trkpt lat="38.639860" lon="-5.763680"><ele>443.8</ele><time>2010-03-01T15:50:46Z</time></trkpt><trkpt lat="38.640010" lon="-5.763490"><ele>443.8</ele><time>2010-03-01T15:51:12Z</time></trkpt><trkpt lat="38.640020" lon="-5.763500"><ele>443.8</ele><time>2010-03-01T15:51:44Z</time></trkpt><trkpt lat="38.640160" lon="-5.763340"><ele>444.7</ele><time>2010-03-01T15:52:25Z</time></trkpt><trkpt lat="38.640530" lon="-5.763040"><ele>447.1</ele><time>2010-03-01T15:52:56Z</time></trkpt><trkpt lat="38.640830" lon="-5.762510"><ele>449.5</ele><time>2010-03-01T15:53:33Z</time></trkpt><trkpt lat="38.641030" lon="-5.762150"><ele>452.4</ele><time>2010-03-01T15:53:59Z</time></trkpt><trkpt lat="38.641310" lon="-5.761830"><ele>455.8</ele><time>2010-03-01T15:54:29Z</time></trkpt><trkpt lat="38.641370" lon="-5.761760"><ele>457.2</ele><time>2010-03-01T15:54:34Z</time></trkpt><trkpt lat="38.641670" lon="-5.761420"><ele>459.6</ele><time>2010-03-01T15:55:05Z</time></trkpt><trkpt lat="38.642030" lon="-5.761010"><ele>460.6</ele><time>2010-03-01T15:55:40Z</time></trkpt><trkpt lat="38.642360" lon="-5.760530"><ele>461.6</ele><time>2010-03-01T15:56:15Z</time></trkpt><trkpt lat="38.642610" lon="-5.759930"><ele>461.1</ele><time>2010-03-01T15:56:53Z</time></trkpt><trkpt lat="38.642780" lon="-5.759310"><ele>461.6</ele><time>2010-03-01T15:57:30Z</time></trkpt><trkpt lat="38.642830" lon="-5.759180"><ele>461.6</ele><time>2010-03-01T15:57:54Z</time></trkpt><trkpt lat="38.642820" lon="-5.759130"><ele>461.6</ele><time>2010-03-01T15:57:59Z</time></trkpt><trkpt lat="38.642830" lon="-5.759070"><ele>461.6</ele><time>2010-03-01T15:58:03Z</time></trkpt><trkpt lat="38.642890" lon="-5.758840"><ele>461.6</ele><time>2010-03-01T15:58:26Z</time></trkpt><trkpt lat="38.643010" lon="-5.758370"><ele>463.0</ele><time>2010-03-01T15:58:59Z</time></trkpt><trkpt lat="38.643050" lon="-5.758250"><ele>462.5</ele><time>2010-03-01T15:59:19Z</time></trkpt><trkpt lat="38.643010" lon="-5.758260"><ele>463.0</ele><time>2010-03-01T15:59:35Z</time></trkpt><trkpt lat="38.643010" lon="-5.758260"><ele>463.5</ele><time>2010-03-01T15:59:42Z</time></trkpt><trkpt lat="38.643140" lon="-5.758080"><ele>463.0</ele><time>2010-03-01T16:00:05Z</time></trkpt><trkpt lat="38.643440" lon="-5.757760"><ele>462.0</ele><time>2010-03-01T16:00:35Z</time></trkpt><trkpt lat="38.643840" lon="-5.757330"><ele>462.5</ele><time>2010-03-01T16:01:14Z</time></trkpt><trkpt lat="38.644090" lon="-5.757030"><ele>462.5</ele><time>2010-03-01T16:01:44Z</time></trkpt><trkpt lat="38.644420" lon="-5.756760"><ele>462.0</ele><time>2010-03-01T16:02:13Z</time></trkpt><trkpt lat="38.644690" lon="-5.756390"><ele>462.0</ele><time>2010-03-01T16:02:39Z</time></trkpt><trkpt lat="38.644950" lon="-5.755900"><ele>460.1</ele><time>2010-03-01T16:03:10Z</time></trkpt><trkpt lat="38.645180" lon="-5.755300"><ele>459.6</ele><time>2010-03-01T16:03:48Z</time></trkpt><trkpt lat="38.645500" lon="-5.755030"><ele>460.1</ele><time>2010-03-01T16:04:20Z</time></trkpt><trkpt lat="38.645880" lon="-5.754700"><ele>462.0</ele><time>2010-03-01T16:04:55Z</time></trkpt><trkpt lat="38.645970" lon="-5.754260"><ele>464.0</ele><time>2010-03-01T16:05:22Z</time></trkpt><trkpt lat="38.645940" lon="-5.754100"><ele>464.5</ele><time>2010-03-01T16:05:42Z</time></trkpt><trkpt lat="38.645940" lon="-5.754100"><ele>464.5</ele><time>2010-03-01T16:07:03Z</time></trkpt><trkpt lat="38.645960" lon="-5.754100"><ele>461.6</ele><time>2010-03-01T16:08:22Z</time></trkpt><trkpt lat="38.645990" lon="-5.753920"><ele>461.6</ele><time>2010-03-01T16:08:54Z</time></trkpt><trkpt lat="38.646030" lon="-5.753810"><ele>461.1</ele><time>2010-03-01T16:09:20Z</time></trkpt><trkpt lat="38.646080" lon="-5.753650"><ele>460.6</ele><time>2010-03-01T16:09:40Z</time></trkpt><trkpt lat="38.646110" lon="-5.753660"><ele>460.6</ele><time>2010-03-01T16:10:03Z</time></trkpt><trkpt lat="38.646150" lon="-5.753710"><ele>460.6</ele><time>2010-03-01T16:10:07Z</time></trkpt><trkpt lat="38.646190" lon="-5.753560"><ele>462.0</ele><time>2010-03-01T16:12:40Z</time></trkpt><trkpt lat="38.646200" lon="-5.753370"><ele>462.0</ele><time>2010-03-01T16:13:17Z</time></trkpt><trkpt lat="38.646160" lon="-5.752880"><ele>462.0</ele><time>2010-03-01T16:13:46Z</time></trkpt><trkpt lat="38.646090" lon="-5.752430"><ele>462.5</ele><time>2010-03-01T16:14:13Z</time></trkpt><trkpt lat="38.646040" lon="-5.752120"><ele>462.5</ele><time>2010-03-01T16:14:41Z</time></trkpt><trkpt lat="38.646040" lon="-5.751760"><ele>462.0</ele><time>2010-03-01T16:15:05Z</time></trkpt><trkpt lat="38.646060" lon="-5.751270"><ele>463.0</ele><time>2010-03-01T16:15:35Z</time></trkpt><trkpt lat="38.646050" lon="-5.750680"><ele>465.9</ele><time>2010-03-01T16:16:09Z</time></trkpt><trkpt lat="38.646040" lon="-5.750080"><ele>466.9</ele><time>2010-03-01T16:16:41Z</time></trkpt><trkpt lat="38.645960" lon="-5.749430"><ele>467.3</ele><time>2010-03-01T16:17:38Z</time></trkpt><trkpt lat="38.645960" lon="-5.749430"><ele>467.8</ele><time>2010-03-01T16:17:51Z</time></trkpt><trkpt lat="38.645980" lon="-5.749410"><ele>466.9</ele><time>2010-03-01T16:18:54Z</time></trkpt><trkpt lat="38.645970" lon="-5.749370"><ele>467.3</ele><time>2010-03-01T16:19:11Z</time></trkpt><trkpt lat="38.645790" lon="-5.748810"><ele>468.3</ele><time>2010-03-01T16:19:46Z</time></trkpt><trkpt lat="38.645690" lon="-5.748190"><ele>469.3</ele><time>2010-03-01T16:20:20Z</time></trkpt><trkpt lat="38.645680" lon="-5.747800"><ele>470.2</ele><time>2010-03-01T16:20:55Z</time></trkpt><trkpt lat="38.645680" lon="-5.747720"><ele>471.2</ele><time>2010-03-01T16:21:10Z</time></trkpt><trkpt lat="38.645670" lon="-5.747110"><ele>474.5</ele><time>2010-03-01T16:21:44Z</time></trkpt><trkpt lat="38.645690" lon="-5.746640"><ele>474.5</ele><time>2010-03-01T16:22:12Z</time></trkpt><trkpt lat="38.645700" lon="-5.746510"><ele>475.0</ele><time>2010-03-01T16:22:19Z</time></trkpt><trkpt lat="38.645710" lon="-5.746430"><ele>475.0</ele><time>2010-03-01T16:22:24Z</time></trkpt><trkpt lat="38.645730" lon="-5.746040"><ele>476.5</ele><time>2010-03-01T16:22:47Z</time></trkpt><trkpt lat="38.645740" lon="-5.745850"><ele>477.0</ele><time>2010-03-01T16:22:58Z</time></trkpt><trkpt lat="38.645750" lon="-5.745750"><ele>476.5</ele><time>2010-03-01T16:23:05Z</time></trkpt><trkpt lat="38.645750" lon="-5.745630"><ele>477.9</ele><time>2010-03-01T16:23:11Z</time></trkpt><trkpt lat="38.645740" lon="-5.745450"><ele>477.9</ele><time>2010-03-01T16:23:22Z</time></trkpt><trkpt lat="38.645710" lon="-5.745420"><ele>477.4</ele><time>2010-03-01T16:23:26Z</time></trkpt></trkseg></trk></gpx>